createdAt,value
2019-05-05T00:02:05.045Z,6.97
2019-05-05T00:04:54.395Z,8.03
2019-05-05T00:07:28.599Z,8.70
2019-05-05T00:09:58.746Z,9.67
2019-05-05T00:13:04.485Z,10.07
2019-05-05T00:16:11.586Z,8.27
2019-05-05T00:18:41.979Z,10.10
2019-05-05T00:21:11.898Z,9.03
2019-05-05T00:23:41.847Z,10.10
2019-05-05T00:26:11.769Z,9.60
2019-05-05T00:28:44.618Z,8.53
2019-05-05T00:31:15.143Z,6.23
2019-05-05T00:33:46.018Z,8.60
2019-05-05T00:36:15.679Z,8.30
2019-05-05T00:38:45.372Z,8.23
2019-05-05T00:41:14.994Z,9.67
2019-05-05T00:43:45.220Z,10.00
2019-05-05T00:46:20.821Z,11.03
2019-05-05T00:48:50.300Z,8.37
2019-05-05T00:51:19.729Z,9.63
2019-05-05T00:53:49.192Z,8.30
2019-05-05T00:56:18.717Z,9.77
2019-05-05T00:58:55.289Z,12.33
2019-05-05T01:01:59.067Z,10.00
2019-05-05T01:04:36.156Z,11.90
2019-05-05T01:07:05.894Z,12.00
2019-05-05T01:09:35.724Z,10.40
2019-05-05T01:12:06.940Z,9.13
2019-05-05T01:14:36.379Z,8.67
2019-05-05T01:17:06.117Z,10.90
2019-05-05T01:19:35.790Z,10.40
2019-05-05T01:22:05.331Z,8.87
2019-05-05T01:24:34.875Z,9.47
2019-05-05T01:27:04.380Z,9.17
2019-05-05T01:29:34.618Z,11.07
2019-05-05T01:32:05.822Z,9.03
2019-05-05T01:34:41.685Z,13.13
2019-05-05T01:37:18.198Z,9.93
2019-05-05T01:40:01.967Z,10.97
2019-05-05T01:42:31.507Z,11.83
2019-05-05T01:45:04.398Z,10.23
2019-05-05T01:47:34.715Z,8.93
2019-05-05T01:50:17.557Z,12.33
2019-05-05T01:52:36.122Z,10.70
2019-05-05T01:55:05.710Z,10.90
2019-05-05T01:57:35.566Z,12.87
2019-05-05T02:00:05.797Z,10.67
2019-05-05T02:02:35.299Z,11.13
2019-05-05T02:05:04.787Z,9.43
2019-05-05T02:07:34.336Z,10.67
2019-05-05T02:10:06.037Z,9.80
2019-05-05T02:12:35.383Z,11.40
2019-05-05T02:15:05.552Z,11.80
2019-05-05T02:17:35.320Z,8.90
2019-05-05T02:20:05.368Z,12.00
2019-05-05T02:22:35.638Z,10.57
2019-05-05T02:25:05.811Z,10.73
2019-05-05T02:27:35.352Z,10.00
2019-05-05T02:30:16.282Z,10.27
2019-05-05T02:33:06.094Z,11.77
2019-05-05T02:35:35.283Z,11.23
2019-05-05T02:38:06.461Z,10.43
2019-05-05T02:40:37.335Z,12.57
2019-05-05T02:43:07.924Z,10.97
2019-05-05T02:45:55.203Z,9.40
2019-05-05T02:48:26.042Z,10.77
2019-05-05T02:51:02.109Z,10.30
2019-05-05T02:53:43.981Z,11.30
2019-05-05T02:56:26.926Z,13.83
2019-05-05T02:59:00.972Z,9.67
2019-05-05T03:01:48.660Z,13.03
2019-05-05T03:04:18.906Z,11.83
2019-05-05T03:06:51.601Z,12.17
2019-05-05T03:09:24.366Z,11.63
2019-05-05T03:11:56.925Z,13.13
2019-05-05T03:14:28.358Z,11.43
2019-05-05T03:17:17.118Z,14.10
2019-05-05T03:19:46.561Z,12.37
2019-05-05T03:22:16.082Z,12.33
2019-05-05T03:24:46.332Z,12.30
2019-05-05T03:27:15.858Z,10.77
2019-05-05T03:29:45.453Z,13.63
2019-05-05T03:32:16.273Z,12.33
2019-05-05T03:34:46.173Z,11.30
2019-05-05T03:37:16.696Z,15.53
2019-05-05T03:39:53.711Z,14.43
2019-05-05T03:42:38.859Z,12.43
2019-05-05T03:45:15.733Z,14.13
2019-05-05T03:47:45.315Z,15.80
2019-05-05T03:50:15.065Z,14.67
2019-05-05T03:52:45.645Z,16.43
2019-05-05T03:55:15.110Z,16.87
2019-05-05T03:57:45.541Z,19.40
2019-05-05T04:00:23.548Z,15.57
2019-05-05T04:03:01.103Z,24.77
2019-05-05T04:05:40.751Z,19.00
2019-05-05T04:08:11.546Z,23.33
2019-05-05T04:10:41.564Z,17.67
2019-05-05T04:13:13.925Z,18.17
2019-05-05T04:15:45.320Z,19.37
2019-05-05T04:18:20.018Z,19.67
2019-05-05T04:20:49.934Z,20.33
2019-05-05T04:23:19.506Z,21.67
2019-05-05T04:25:48.983Z,18.63
2019-05-05T04:28:18.512Z,19.33
2019-05-05T04:30:48.002Z,22.87
2019-05-05T04:33:17.447Z,21.33
2019-05-05T04:35:46.887Z,23.03
2019-05-05T04:38:17.590Z,20.53
2019-05-05T04:40:47.022Z,19.80
2019-05-05T04:43:26.868Z,23.87
2019-05-05T04:45:56.430Z,18.67
2019-05-05T04:48:35.436Z,20.37
2019-05-05T04:51:10.495Z,22.17
2019-05-05T04:53:57.923Z,19.50
2019-05-05T04:56:29.930Z,21.00
2019-05-05T04:58:59.088Z,19.90
2019-05-05T05:01:28.615Z,21.63
2019-05-05T05:04:16.967Z,20.60
2019-05-05T05:06:49.759Z,21.90
2019-05-05T05:09:19.238Z,20.67
2019-05-05T05:11:48.781Z,19.60
2019-05-05T05:14:18.298Z,19.60
2019-05-05T05:16:48.266Z,19.33
2019-05-05T05:19:17.702Z,21.23
2019-05-05T05:21:58.439Z,18.20
2019-05-05T05:24:18.395Z,19.63
2019-05-05T05:26:47.865Z,20.43
2019-05-05T05:29:17.400Z,19.73
2019-05-05T05:31:46.984Z,18.93
2019-05-05T05:34:16.438Z,20.50
2019-05-05T05:36:45.974Z,18.23
2019-05-05T05:39:25.716Z,21.00
2019-05-05T05:41:55.277Z,18.37
2019-05-05T05:44:44.398Z,19.93
2019-05-05T05:47:20.474Z,17.33
2019-05-05T05:50:08.663Z,18.27
2019-05-05T05:52:38.210Z,21.27
2019-05-05T05:55:08.921Z,18.60
2019-05-05T05:57:38.446Z,19.80
2019-05-05T06:00:08.168Z,19.67
2019-05-05T06:02:37.777Z,19.70
2019-05-05T06:05:07.411Z,17.63
2019-05-05T06:07:36.986Z,18.63
2019-05-05T06:10:27.399Z,20.73
2019-05-05T06:12:56.774Z,20.17
2019-05-05T06:15:26.203Z,21.10
2019-05-05T06:17:55.769Z,20.37
2019-05-05T06:20:25.262Z,22.87
2019-05-05T06:22:54.775Z,19.37
2019-05-05T06:25:26.582Z,24.30
2019-05-05T06:27:55.485Z,20.50
2019-05-05T06:30:25.031Z,17.60
2019-05-05T06:32:54.683Z,20.17
2019-05-05T06:35:44.298Z,19.67
2019-05-05T06:38:14.167Z,20.93
2019-05-05T06:41:04.187Z,17.03
2019-05-05T06:44:03.563Z,20.90
2019-05-05T06:46:53.631Z,18.83
2019-05-05T06:49:23.781Z,15.80
2019-05-05T06:51:54.691Z,19.17
2019-05-05T06:54:24.795Z,15.40
2019-05-05T06:56:54.573Z,16.63
2019-05-05T06:59:24.466Z,18.13
2019-05-05T07:01:54.155Z,14.17
2019-05-05T07:04:24.516Z,15.90
2019-05-05T07:06:57.156Z,18.93
2019-05-05T07:09:26.957Z,16.13
2019-05-05T07:11:56.614Z,14.23
2019-05-05T07:14:26.181Z,15.13
2019-05-05T07:16:55.777Z,15.57
2019-05-05T07:19:25.332Z,14.67
2019-05-05T07:21:56.114Z,14.33
2019-05-05T07:24:25.573Z,16.20
2019-05-05T07:26:55.179Z,14.73
2019-05-05T07:29:24.734Z,10.20
2019-05-05T07:31:54.669Z,13.03
2019-05-05T07:34:25.618Z,10.97
2019-05-05T07:36:55.791Z,12.30
2019-05-05T07:39:25.235Z,12.73
2019-05-05T07:41:54.789Z,14.80
2019-05-05T07:44:29.324Z,9.63
2019-05-05T07:46:55.657Z,11.30
2019-05-05T07:49:25.238Z,12.53
2019-05-05T07:51:54.947Z,7.20
2019-05-05T07:54:24.583Z,12.90
2019-05-05T07:56:54.080Z,8.53
2019-05-05T07:59:23.963Z,9.20
2019-05-05T08:01:54.832Z,10.40
2019-05-05T08:04:24.791Z,8.80
2019-05-05T08:06:54.289Z,9.13
2019-05-05T08:09:24.949Z,12.50
2019-05-05T08:11:54.570Z,8.77
2019-05-05T08:14:24.579Z,9.37
2019-05-05T08:17:33.991Z,11.73
2019-05-05T08:20:09.989Z,10.93
2019-05-05T08:22:39.577Z,11.73
2019-05-05T08:25:34.502Z,16.60
2019-05-05T08:28:00.020Z,13.67
2019-05-05T08:30:44.168Z,10.83
2019-05-05T08:33:14.129Z,11.77
2019-05-05T08:35:44.871Z,12.10
2019-05-05T08:38:14.561Z,12.03
2019-05-05T08:40:44.416Z,10.07
2019-05-05T08:43:13.988Z,11.80
2019-05-05T08:45:44.361Z,11.43
2019-05-05T08:48:14.388Z,10.40
2019-05-05T08:50:44.394Z,14.77
2019-05-05T08:53:13.987Z,10.70
2019-05-05T08:55:44.338Z,15.70
2019-05-05T08:58:14.895Z,10.17
2019-05-05T09:00:44.719Z,12.37
2019-05-05T09:03:14.172Z,12.27
2019-05-05T09:05:43.922Z,10.67
2019-05-05T09:08:13.965Z,13.13
2019-05-05T09:10:44.797Z,12.13
2019-05-05T09:13:14.549Z,11.23
2019-05-05T09:15:44.417Z,12.53
2019-05-05T09:18:14.285Z,10.83
2019-05-05T09:20:44.550Z,12.63
2019-05-05T09:23:14.898Z,13.27
2019-05-05T09:26:15.719Z,10.67
2019-05-05T09:28:54.652Z,13.13
2019-05-05T09:31:24.121Z,13.73
2019-05-05T09:33:54.223Z,12.23
2019-05-05T09:36:24.355Z,12.53
2019-05-05T09:38:54.106Z,11.23
2019-05-05T09:41:23.652Z,9.90
2019-05-05T09:43:53.942Z,11.00
2019-05-05T09:46:23.819Z,11.97
2019-05-05T09:48:54.129Z,9.67
2019-05-05T09:51:24.238Z,13.77
2019-05-05T09:53:54.150Z,14.80
2019-05-05T09:56:23.850Z,10.70
2019-05-05T09:58:54.463Z,15.77
2019-05-05T10:01:24.645Z,13.67
2019-05-05T10:03:56.648Z,10.90
2019-05-05T10:06:26.344Z,10.73
2019-05-05T10:08:55.869Z,10.57
2019-05-05T10:11:25.411Z,10.07
2019-05-05T10:13:54.947Z,10.80
2019-05-05T10:16:24.401Z,11.37
2019-05-05T10:18:54.252Z,8.40
2019-05-05T10:21:24.603Z,14.60
2019-05-05T10:23:56.085Z,6.87
2019-05-05T10:26:25.631Z,13.33
2019-05-05T10:28:55.196Z,10.47
2019-05-05T10:31:24.810Z,13.97
2019-05-05T10:33:58.391Z,12.70
2019-05-05T10:36:27.988Z,11.13
2019-05-05T10:39:04.366Z,11.77
2019-05-05T10:41:33.840Z,11.93
2019-05-05T10:44:03.713Z,15.60
2019-05-05T10:46:34.096Z,12.00
2019-05-05T10:49:03.742Z,9.87
2019-05-05T10:51:34.582Z,9.43
2019-05-05T10:54:04.319Z,8.67
2019-05-05T10:56:34.561Z,11.97
2019-05-05T10:59:04.083Z,11.03
2019-05-05T11:01:33.638Z,9.93
2019-05-05T11:04:03.179Z,12.20
2019-05-05T11:06:32.797Z,10.27
2019-05-05T11:09:04.405Z,9.20
2019-05-05T11:11:34.417Z,8.53
2019-05-05T11:14:04.188Z,7.77
2019-05-05T11:16:33.676Z,12.13
2019-05-05T11:19:04.350Z,12.23
2019-05-05T11:21:34.206Z,8.93
2019-05-05T11:24:03.801Z,6.70
2019-05-05T11:26:33.954Z,7.23
2019-05-05T11:29:04.231Z,10.80
2019-05-05T11:31:34.399Z,7.47
2019-05-05T11:34:09.845Z,7.53
2019-05-05T11:37:07.486Z,5.87
2019-05-05T11:39:37.060Z,6.70
2019-05-05T11:42:06.612Z,5.83
2019-05-05T11:44:36.066Z,6.63
2019-05-05T11:47:05.676Z,5.00
2019-05-05T11:49:35.250Z,7.97
2019-05-05T11:52:05.785Z,6.10
2019-05-05T11:54:35.348Z,5.30
2019-05-05T11:57:04.822Z,8.00
2019-05-05T11:59:34.382Z,5.67
2019-05-05T12:02:03.967Z,8.37
2019-05-05T12:04:33.476Z,6.97
2019-05-05T12:07:04.060Z,8.10
2019-05-05T12:09:44.385Z,6.67
2019-05-05T12:12:14.294Z,6.10
2019-05-05T12:14:44.240Z,5.80
2019-05-05T12:17:15.240Z,7.43
2019-05-05T12:19:44.730Z,6.27
2019-05-05T12:22:14.191Z,7.30
2019-05-05T12:24:46.191Z,5.47
2019-05-05T12:27:27.715Z,9.50
2019-05-05T12:30:14.092Z,6.70
2019-05-05T12:32:43.853Z,7.30
2019-05-05T12:35:14.984Z,6.27
2019-05-05T12:37:44.571Z,6.60
2019-05-05T12:40:14.439Z,4.93
2019-05-05T12:42:44.069Z,3.33
2019-05-05T12:45:17.776Z,4.60
2019-05-05T12:48:21.371Z,4.33
2019-05-05T12:50:50.936Z,6.33
2019-05-05T12:53:20.760Z,7.17
2019-05-05T12:55:50.201Z,4.63
2019-05-05T12:58:19.723Z,4.90
2019-05-05T13:01:10.980Z,4.60
2019-05-05T13:03:40.443Z,5.93
2019-05-05T13:06:09.930Z,6.07
2019-05-05T13:08:39.485Z,8.00
2019-05-05T13:11:11.707Z,6.63
2019-05-05T13:13:41.189Z,8.30
2019-05-05T13:16:10.901Z,7.30
2019-05-05T13:18:40.491Z,5.77
2019-05-05T13:21:21.440Z,4.73
2019-05-05T13:24:13.721Z,7.70
2019-05-05T13:27:10.189Z,5.70
2019-05-05T13:29:36.495Z,5.70
2019-05-05T13:32:06.033Z,6.27
2019-05-05T13:34:35.604Z,7.40
2019-05-05T13:37:29.355Z,11.20
2019-05-05T13:40:09.088Z,9.47
2019-05-05T13:42:54.534Z,6.03
2019-05-05T13:45:46.246Z,6.03
2019-05-05T13:48:18.094Z,6.60
2019-05-05T13:50:53.899Z,6.10
2019-05-05T13:53:24.247Z,5.40
2019-05-05T13:55:58.374Z,5.87
2019-05-05T13:58:39.210Z,5.83
2019-05-05T14:01:16.991Z,6.03
2019-05-05T14:03:46.662Z,8.77
2019-05-05T14:06:27.421Z,5.47
2019-05-05T14:08:57.701Z,8.67
2019-05-05T14:11:29.876Z,7.07
2019-05-05T14:14:03.120Z,7.60
2019-05-05T14:16:46.699Z,5.90
2019-05-05T14:19:16.830Z,8.47
2019-05-05T14:21:48.584Z,10.63
2019-05-05T14:24:47.821Z,6.40
2019-05-05T14:27:25.491Z,10.80
2019-05-05T14:30:20.790Z,11.70
2019-05-05T14:33:00.425Z,6.40
2019-05-05T14:36:04.909Z,9.00
2019-05-05T14:38:41.635Z,7.37
2019-05-05T14:41:13.500Z,5.97
2019-05-05T14:43:44.546Z,6.17
2019-05-05T14:46:24.077Z,9.07
2019-05-05T14:48:58.181Z,8.13
2019-05-05T14:51:34.841Z,7.07
2019-05-05T14:54:05.206Z,6.90
2019-05-05T14:56:36.595Z,5.93
2019-05-05T14:59:06.765Z,6.67
2019-05-05T15:01:37.030Z,7.90
2019-05-05T15:04:13.393Z,6.90
2019-05-05T15:07:06.750Z,7.40
2019-05-05T15:09:46.960Z,6.30
2019-05-05T15:12:25.691Z,5.70
2019-05-05T15:14:55.316Z,6.67
2019-05-05T15:17:28.977Z,8.03
2019-05-05T15:20:01.443Z,5.47
2019-05-05T15:22:31.031Z,5.00
2019-05-05T15:25:00.448Z,5.23
2019-05-05T15:27:30.108Z,7.50
2019-05-05T15:30:01.818Z,9.43
2019-05-05T15:32:35.462Z,7.23
2019-05-05T15:35:14.279Z,5.30
2019-05-05T15:37:53.609Z,5.77
2019-05-05T15:40:24.731Z,7.87
2019-05-05T15:43:00.920Z,6.37
2019-05-05T15:45:35.539Z,4.07
2019-05-05T15:48:05.031Z,5.27
2019-05-05T15:50:44.759Z,6.60
2019-05-05T15:53:54.229Z,7.63
2019-05-05T15:57:03.001Z,5.73
2019-05-05T15:59:34.295Z,6.37
2019-05-05T16:02:10.871Z,6.80
2019-05-05T16:04:48.998Z,5.83
2019-05-05T16:07:28.181Z,7.70
2019-05-05T16:13:44.005Z,6.40
2019-05-05T16:16:40.391Z,6.63
2019-05-05T16:19:28.335Z,6.93
2019-05-05T16:22:05.152Z,7.03
2019-05-05T16:24:36.716Z,5.77
2019-05-05T16:27:21.214Z,5.57
2019-05-05T16:29:40.276Z,6.57
2019-05-05T16:32:21.126Z,5.40
2019-05-05T16:34:43.648Z,7.07
2019-05-05T16:37:14.291Z,9.73
2019-05-05T16:39:45.621Z,10.03
2019-05-05T16:42:15.289Z,7.43
2019-05-05T16:44:53.932Z,4.93
2019-05-05T16:47:25.622Z,8.00
2019-05-05T16:49:55.374Z,6.40
2019-05-05T16:52:35.026Z,8.47
2019-05-05T16:55:26.722Z,6.37
2019-05-05T16:58:07.102Z,5.70
2019-05-05T17:00:44.207Z,6.87
2019-05-05T17:03:14.035Z,7.20
2019-05-05T17:05:58.594Z,7.90
2019-05-05T17:08:44.194Z,4.20
2019-05-05T17:11:15.125Z,7.33
2019-05-05T17:14:11.530Z,7.53
2019-05-05T17:17:03.842Z,5.87
2019-05-05T17:19:59.720Z,4.80
2019-05-05T17:22:50.302Z,10.57
2019-05-05T17:25:30.274Z,7.60
2019-05-05T17:28:04.500Z,10.13
2019-05-05T17:30:35.631Z,9.50
2019-05-05T17:33:05.331Z,7.33
2019-05-05T17:35:54.686Z,7.20
2019-05-05T17:38:27.816Z,7.37
2019-05-05T17:41:26.174Z,7.47
2019-05-05T17:44:44.466Z,6.53
2019-05-05T17:47:44.233Z,7.73
2019-05-05T17:50:18.011Z,7.13
2019-05-05T17:53:05.023Z,8.73
2019-05-05T17:55:39.201Z,7.87
2019-05-05T17:58:08.683Z,7.40
2019-05-05T18:00:47.014Z,8.03
2019-05-05T18:03:15.867Z,9.73
2019-05-05T18:06:09.083Z,6.30
2019-05-05T18:08:47.828Z,6.83
2019-05-05T18:11:39.151Z,10.40
2019-05-05T18:14:16.099Z,6.33
2019-05-05T18:16:45.600Z,7.90
2019-05-05T18:19:15.748Z,10.20
2019-05-05T18:21:45.633Z,7.43
2019-05-05T18:24:15.722Z,8.60
2019-05-05T18:26:45.385Z,8.90
2019-05-05T18:29:14.998Z,8.13
2019-05-05T18:31:45.624Z,12.83
2019-05-05T18:34:15.663Z,6.33
2019-05-05T18:36:47.578Z,8.93
2019-05-05T18:39:17.350Z,7.57
2019-05-05T18:42:07.105Z,7.37
2019-05-05T18:44:44.408Z,14.40
2019-05-05T18:47:19.076Z,10.67
2019-05-05T18:49:48.713Z,8.53
2019-05-05T18:52:18.569Z,5.43
2019-05-05T18:54:48.178Z,7.07
2019-05-05T18:57:17.755Z,6.63
2019-05-05T18:59:47.447Z,10.43
2019-05-05T19:02:38.996Z,6.13
2019-05-05T19:05:25.034Z,10.53
2019-05-05T19:07:57.588Z,7.53
2019-05-05T19:10:27.239Z,11.33
2019-05-05T19:12:56.785Z,11.40
2019-05-05T19:15:26.434Z,12.03
2019-05-05T19:17:55.895Z,8.60
2019-05-05T19:20:37.319Z,9.63
2019-05-05T19:23:06.914Z,9.57
2019-05-05T19:25:36.472Z,8.60
2019-05-05T19:28:07.716Z,9.53
2019-05-05T19:30:40.230Z,10.90
2019-05-05T19:33:13.418Z,7.03
2019-05-05T19:35:45.072Z,9.50
2019-05-05T19:38:15.748Z,8.97
2019-05-05T19:40:46.042Z,11.77
2019-05-05T19:43:17.653Z,8.00
2019-05-05T19:45:47.741Z,8.10
2019-05-05T19:48:36.340Z,9.23
2019-05-05T19:51:14.048Z,7.83
2019-05-05T19:53:45.826Z,7.73
2019-05-05T19:56:24.822Z,7.43
2019-05-05T19:59:01.501Z,9.50
2019-05-05T20:01:37.800Z,8.53
2019-05-05T20:04:10.784Z,7.37
2019-05-05T20:06:43.988Z,8.67
2019-05-05T20:09:14.828Z,9.90
2019-05-05T20:11:49.317Z,8.60
2019-05-05T20:14:21.128Z,7.77
2019-05-05T20:17:07.801Z,8.10
2019-05-05T20:19:43.945Z,8.17
2019-05-05T20:22:16.193Z,6.90
2019-05-05T20:24:47.898Z,6.97
2019-05-05T20:27:18.727Z,6.77
2019-05-05T20:29:48.774Z,8.17
2019-05-05T20:32:34.066Z,7.70
2019-05-05T20:35:39.502Z,9.33
2019-05-05T20:38:35.436Z,9.40
2019-05-05T20:41:16.007Z,8.50
2019-05-05T20:43:45.568Z,11.67
2019-05-05T20:46:15.660Z,8.50
2019-05-05T20:48:45.318Z,10.90
2019-05-05T20:51:14.778Z,9.10
2019-05-05T20:53:45.932Z,5.93
2019-05-05T20:56:18.334Z,9.80
2019-05-05T20:58:47.973Z,7.07
2019-05-05T21:01:17.981Z,8.10
2019-05-05T21:03:49.075Z,8.30
2019-05-05T21:06:18.621Z,9.63
2019-05-05T21:08:49.949Z,10.80
2019-05-05T21:11:19.373Z,12.70
2019-05-05T21:13:48.855Z,13.40
2019-05-05T21:16:18.826Z,11.13
2019-05-05T21:18:48.724Z,9.93
2019-05-05T21:21:24.655Z,12.43
2019-05-05T21:24:01.274Z,9.33
2019-05-05T21:26:50.914Z,9.40
2019-05-05T21:29:20.657Z,8.60
2019-05-05T21:31:55.066Z,9.87
2019-05-05T21:34:25.527Z,10.23
2019-05-05T21:37:04.574Z,10.70
2019-05-05T21:39:45.401Z,12.67
2019-05-05T21:42:16.772Z,9.63
2019-05-05T21:44:49.366Z,9.07
2019-05-05T21:47:27.351Z,10.43
2019-05-05T21:50:00.161Z,12.27
2019-05-05T21:52:43.019Z,8.30
2019-05-05T21:55:38.580Z,10.10
2019-05-05T21:58:17.798Z,8.40
2019-05-05T22:01:08.189Z,13.27
2019-05-05T22:03:40.904Z,10.47
2019-05-05T22:06:17.919Z,9.90
2019-05-05T22:08:49.293Z,12.80
2019-05-05T22:11:24.287Z,9.47
2019-05-05T22:13:56.301Z,15.93
2019-05-05T22:16:26.438Z,12.10
2019-05-05T22:18:57.443Z,12.30
2019-05-05T22:21:36.813Z,13.23
2019-05-05T22:24:15.725Z,9.63
2019-05-05T22:26:47.092Z,10.03
2019-05-05T22:29:18.322Z,9.90
2019-05-05T22:31:48.111Z,13.23
2019-05-05T22:34:25.126Z,7.93
2019-05-05T22:36:54.755Z,9.17
2019-05-05T22:39:24.512Z,8.07
2019-05-05T22:42:04.814Z,10.20
2019-05-05T22:44:35.959Z,10.57
2019-05-05T22:47:05.347Z,11.67
2019-05-05T22:49:34.911Z,10.50
2019-05-05T22:52:09.578Z,13.30
2019-05-05T22:54:39.119Z,9.20
2019-05-05T22:57:08.656Z,9.43
2019-05-05T22:59:38.078Z,11.70
2019-05-05T23:02:08.129Z,11.13
2019-05-05T23:04:51.346Z,8.67
2019-05-05T23:07:25.383Z,15.43
2019-05-05T23:09:54.801Z,13.37
2019-05-05T23:12:24.465Z,9.37
2019-05-05T23:14:54.589Z,9.30
2019-05-05T23:17:43.802Z,7.37
2019-05-05T23:20:34.076Z,11.40
2019-05-05T23:23:14.792Z,13.80
2019-05-05T23:25:46.210Z,7.57
2019-05-05T23:28:16.699Z,12.60
2019-05-05T23:30:46.625Z,13.27
2019-05-05T23:33:15.995Z,10.53
2019-05-05T23:35:48.945Z,14.80
2019-05-05T23:38:18.944Z,12.83
2019-05-05T23:40:51.371Z,10.70
2019-05-05T23:43:26.347Z,12.10
2019-05-05T23:45:55.736Z,10.43
2019-05-05T23:48:25.161Z,10.50
2019-05-05T23:50:54.500Z,9.33
2019-05-05T23:53:24.879Z,10.00
2019-05-05T23:55:54.758Z,15.57
2019-05-05T23:58:24.156Z,11.63
